Moro, AR (72368)

3:54 AM CDT on July 12, 2014 (GMT -0500)
marianna,arrkansas (KARMARIA2) Elev 230 ft | 34.77 °N, 90.77 °W | Change Station

Current weather conditions updated 4 minutes ago

Fog
Fog
72.0 °F
Feels Like 72.0 °F
N
0.0
Wind Variable Wind from ESE

Today is forecast to be Warmer than yesterday.

Today
High -- | Low -- °F
--% Chance of Precip.
Yesterday
High -- | Low -- °F
Precip. -- in
5:59 AM 8:17 PM
Full, 100% visible
Pressure 30.13 in
Visibility 0.2 miles
Clouds
Dew Point 72 °F
Humidity 99%
Rainfall 0.00 in
Snow Depth Not available.
UV Not available.
Pollen 3.20 out of 12
Air Quality Not available.
Flu Activity No Activity
METAR KUTA 120835Z AUTO 00000KT 1/4SM FG VV002 22/21 A3013 RMK AO2

More Conditions Fewer Conditions

Pressure 30.13 in
Visibility 0.2 miles
Clouds
Dew Point 72 °F
Humidity 99%
Rainfall 0.00 in
Snow Depth Not available.
UV Not available.
Pollen 3.20 out of 12
Air Quality Not available.
Flu Activity No Activity
METAR KUTA 120835Z AUTO 00000KT 1/4SM FG VV002 22/21 A3013 RMK AO2

More Conditions Fewer Conditions

10-Day Weather Forecast

Almanac

Astronomy

Jul. 12, 2014 Rise Set
Actual Time 5:59 AM CDT 8:17 PM CDT
Civil Twilight 5:30 AM CDT 8:46 PM CDT
Nautical Twilight 4:54 AM CDT 9:22 PM CDT
Astronomical Twilight 4:15 AM CDT 10:01 PM CDT
Moon 8:24 PM CDT 6:15 AM CDT
Length of Visible Light 15h 16m
Length of Day
14h 18m
Tomorrow will be 0m 59s shorter.
Full, 100% of the Moon is Illuminated
Today
Full
Jul 12
Full
Jul 18
Last Quarter
Jul 26
New
Aug 3
First Quarter

Today's Extremes

State Highs State Lows

Community

WunderPhotos

Upload Photos

1,732,746 photos uploaded!

Nearby

Snow Depth

Station Depth Elevation
No new snow has been reported.

Earthquake Activity

City Distance Mag. Time & Date
No recent earthquake activity has been reported nearby.
Minimum magnitude displayed is 2.5.

Coastal Water Temperatures

Place Temperature
No Stations Reporting

Nearby Weather Stations

Station Location Temp. Heat Index Dew Point Humidity Wind Precip. Elev Updated Type
marianna,arrkansas, Marianna, AR 72.0 °F - 72 °F 99% ESE  at  0.0 mph - / hr 230 ft 3:49 AM CDT Normal
MesoWest BECKS , Madison, AR 81 °F 79 °F - - North  at  - 0.00 in / hr 219 ft 1:20 AM CDT MADIS
MesoWest TUNICA , Tunica, MS 74 °F 71 °F 73 °F 97% SW  at  0 mph 0.00 in / hr 259 ft 12:00 AM CDT MADIS
MesoWest WHTLEY , Wheatley, AR 73 °F 71 °F - - North  at  - 0.00 in / hr 208 ft 1:35 AM CDT MADIS
MesoWest RNDPND , Widener, AR 76 °F 74 °F - - North  at  - 0.00 in / hr 210 ft 12:55 AM CDT MADIS

Show More Stations Show Fewer Stations